Time;durP1;ratioP1;P1;durP2;ratioP2;P2;SDS_P1;SDS_P2;PMS_P1;PMS_P2;Temp;Humidity;BMP_temperature;BMP_pressure;BME280_temperature;BME280_humidity;BME280_pressure;Samples;Min_cycle;Max_cycle;Signal;HPM_P1;HPM_P2
2021/07/24 00:00:55;;;;;;;9.50;8.60;;;18.20;99.90;;;;;;5071926;28;20412;-69
2021/07/24 00:03:20;;;;;;;10.13;8.97;;;18.30;99.90;;;;;;5072486;28;20431;-69
2021/07/24 00:05:46;;;;;;;10.33;9.17;;;18.30;99.90;;;;;;5073305;28;20165;-69
2021/07/24 00:08:11;;;;;;;9.03;8.13;;;18.40;99.90;;;;;;5072129;28;20162;-69
2021/07/24 00:10:37;;;;;;;10.17;9.17;;;18.40;99.90;;;;;;5073575;28;20275;-71
2021/07/24 00:13:02;;;;;;;9.60;8.70;;;18.40;99.90;;;;;;5070939;28;20166;-69
2021/07/24 00:15:28;;;;;;;9.60;8.03;;;18.40;99.90;;;;;;5073094;28;20176;-69
2021/07/24 00:17:53;;;;;;;14.50;8.97;;;18.40;99.90;;;;;;5072408;28;20171;-70
2021/07/24 00:20:19;;;;;;;11.00;8.17;;;18.30;99.90;;;;;;5072858;28;20293;-69
2021/07/24 00:22:44;;;;;;;8.60;7.77;;;18.40;99.90;;;;;;5073730;28;20174;-69
2021/07/24 00:25:10;;;;;;;9.00;8.20;;;18.30;99.90;;;;;;5076307;28;20167;-69
2021/07/24 00:27:36;;;;;;;11.50;9.03;;;18.30;99.90;;;;;;5075965;28;20196;-70
2021/07/24 00:30:01;;;;;;;8.90;8.00;;;18.20;99.90;;;;;;5076786;28;20451;-69
2021/07/24 00:32:27;;;;;;;9.43;8.47;;;18.20;99.90;;;;;;5076770;28;20516;-69
2021/07/24 00:34:53;;;;;;;8.73;7.93;;;18.20;99.90;;;;;;5076184;28;20242;-69
2021/07/24 00:37:20;;;;;;;9.23;8.43;;;18.20;99.90;;;;;;5075893;28;20216;-69
2021/07/24 00:39:46;;;;;;;11.20;9.17;;;18.20;99.90;;;;;;5075749;28;20204;-69
2021/07/24 00:42:20;;;;;;;12.27;9.13;;;18.10;99.90;;;;;;5075142;28;20414;-68
2021/07/24 00:44:47;;;;;;;11.47;8.80;;;18.10;99.90;;;;;;5075272;28;20715;-69
2021/07/24 00:47:18;;;;;;;9.10;8.17;;;18.00;99.90;;;;;;5075548;28;20420;-69
2021/07/24 00:49:46;;;;;;;8.60;7.70;;;18.00;99.90;;;;;;5075157;28;20424;-69
2021/07/24 00:52:13;;;;;;;9.70;8.70;;;18.00;99.90;;;;;;5075503;28;20407;-69
2021/07/24 00:54:39;;;;;;;9.17;8.27;;;18.00;99.90;;;;;;5075423;28;20461;-70
2021/07/24 00:57:06;;;;;;;8.53;7.77;;;18.10;99.90;;;;;;5075123;28;20445;-69
2021/07/24 00:59:31;;;;;;;9.10;8.20;;;18.10;99.90;;;;;;5075238;28;20510;-68
2021/07/24 01:01:56;;;;;;;8.27;7.40;;;18.10;99.90;;;;;;5075044;28;20498;-71
2021/07/24 01:04:22;;;;;;;8.47;7.67;;;18.10;99.90;;;;;;5074801;28;20245;-69
2021/07/24 01:06:49;;;;;;;8.80;8.00;;;18.20;99.90;;;;;;5075022;28;20173;-69
2021/07/24 01:09:15;;;;;;;8.63;7.90;;;18.10;99.90;;;;;;5075122;28;20695;-68
2021/07/24 01:11:40;;;;;;;8.53;7.63;;;18.10;99.90;;;;;;5075104;28;20411;-69
2021/07/24 01:14:06;;;;;;;8.00;7.30;;;18.20;99.90;;;;;;5075042;28;20454;-68
2021/07/24 01:16:31;;;;;;;8.53;7.73;;;18.20;99.90;;;;;;5074914;28;20173;-69
2021/07/24 01:18:57;;;;;;;9.10;8.20;;;18.20;99.90;;;;;;5074843;28;20165;-71
2021/07/24 01:21:27;;;;;;;9.50;8.50;;;18.20;99.90;;;;;;5074553;28;20176;-69
2021/07/24 01:23:53;;;;;;;9.40;8.40;;;18.20;99.90;;;;;;5075090;28;20654;-69
2021/07/24 01:26:23;;;;;;;9.60;8.60;;;18.20;99.90;;;;;;5074658;28;20404;-67
2021/07/24 01:28:49;;;;;;;8.53;7.73;;;18.20;99.90;;;;;;5074879;28;20620;-69
2021/07/24 01:31:15;;;;;;;9.23;8.33;;;18.20;99.90;;;;;;5074689;28;20768;-68
2021/07/24 01:33:40;;;;;;;10.13;8.27;;;18.20;99.90;;;;;;5073904;28;20444;-69
2021/07/24 01:36:06;;;;;;;9.77;8.77;;;18.20;99.90;;;;;;5075160;28;20575;-69
2021/07/24 01:38:31;;;;;;;8.93;8.07;;;18.20;99.90;;;;;;5075680;28;20168;-70
2021/07/24 01:40:57;;;;;;;10.10;8.67;;;18.20;99.90;;;;;;5075400;28;20205;-70
2021/07/24 01:43:22;;;;;;;10.40;8.50;;;18.20;99.90;;;;;;5075406;28;20173;-69
2021/07/24 01:45:48;;;;;;;10.63;9.53;;;18.20;99.90;;;;;;5075082;28;20252;-69
2021/07/24 01:48:16;;;;;;;9.70;8.80;;;18.20;99.90;;;;;;5072951;28;20278;-69
2021/07/24 01:53:28;;;;;;;8.90;8.00;;;18.20;99.90;;;;;;5074412;28;20835;-69
2021/07/24 01:55:59;;;;;;;10.53;9.20;;;18.20;99.90;;;;;;5074132;28;20560;-70
2021/07/24 01:58:36;;;;;;;10.73;9.13;;;18.20;99.90;;;;;;5073562;28;20398;-70
2021/07/24 02:01:07;;;;;;;10.90;9.80;;;18.20;99.90;;;;;;5074234;28;20430;-69
2021/07/24 02:03:37;;;;;;;10.43;9.43;;;18.10;99.90;;;;;;5073705;28;20948;-69
2021/07/24 02:06:03;;;;;;;10.47;9.37;;;18.10;99.90;;;;;;5074537;28;20485;-69
2021/07/24 02:08:30;;;;;;;10.90;9.90;;;18.10;99.90;;;;;;5073327;28;20409;-69
2021/07/24 02:10:58;;;;;;;12.43;9.60;;;18.10;99.90;;;;;;5073923;28;20427;-69
2021/07/24 02:13:24;;;;;;;10.00;8.77;;;18.10;99.90;;;;;;5074296;28;20851;-69
2021/07/24 02:15:49;;;;;;;11.53;10.33;;;18.00;99.90;;;;;;5074198;28;20495;-69
2021/07/24 02:18:17;;;;;;;11.77;10.60;;;18.00;99.90;;;;;;5074551;28;20173;-69
2021/07/24 02:20:45;;;;;;;12.30;10.07;;;18.00;99.90;;;;;;5072480;28;20184;-69
2021/07/24 02:23:11;;;;;;;11.00;9.97;;;18.00;99.90;;;;;;5073939;28;20409;-69
2021/07/24 02:25:37;;;;;;;11.53;9.80;;;18.00;99.90;;;;;;5074333;28;20398;-69
2021/07/24 02:28:02;;;;;;;13.33;9.97;;;18.00;99.90;;;;;;5074100;28;20647;-69
2021/07/24 02:30:28;;;;;;;13.07;10.40;;;18.00;99.90;;;;;;5072475;28;20200;-70
2021/07/24 02:32:53;;;;;;;12.77;10.90;;;17.90;99.90;;;;;;5072448;28;20171;-69
2021/07/24 02:35:20;;;;;;;11.03;9.93;;;17.90;99.90;;;;;;5072275;28;20203;-70
2021/07/24 02:37:45;;;;;;;20.20;11.20;;;17.90;99.90;;;;;;5072104;28;20265;-71
2021/07/24 02:40:11;;;;;;;11.80;10.67;;;17.90;99.90;;;;;;5073461;28;20484;-70
2021/07/24 02:42:36;;;;;;;14.73;11.23;;;17.80;99.90;;;;;;5073156;28;20582;-70
2021/07/24 02:45:03;;;;;;;14.93;11.10;;;17.80;99.90;;;;;;5073183;28;20218;-70
2021/07/24 02:47:28;;;;;;;12.80;11.53;;;17.80;99.90;;;;;;5072229;28;20175;-70
2021/07/24 02:49:54;;;;;;;12.20;10.90;;;17.80;99.90;;;;;;5073060;28;20438;-70
2021/07/24 02:52:19;;;;;;;14.80;13.20;;;17.80;99.90;;;;;;5072944;28;20662;-70
2021/07/24 02:54:45;;;;;;;12.87;11.27;;;17.80;99.90;;;;;;5072995;28;20268;-69
2021/07/24 02:57:11;;;;;;;15.37;13.30;;;17.80;99.90;;;;;;5072915;28;20165;-69
2021/07/24 02:59:36;;;;;;;14.23;11.63;;;17.90;99.90;;;;;;5071541;28;20720;-70
2021/07/24 03:02:02;;;;;;;13.40;12.10;;;17.90;99.90;;;;;;5072849;28;20773;-70
2021/07/24 03:04:27;;;;;;;14.50;13.10;;;17.90;99.90;;;;;;5071611;28;20309;-69
2021/07/24 03:06:54;;;;;;;13.20;11.83;;;17.90;99.90;;;;;;5072644;28;20198;-69
2021/07/24 03:09:20;;;;;;;14.67;12.10;;;17.90;99.90;;;;;;5072583;28;20273;-69
2021/07/24 03:11:45;;;;;;;14.93;13.43;;;17.90;99.90;;;;;;5072649;28;20492;-69
2021/07/24 03:14:11;;;;;;;14.70;13.20;;;17.90;99.90;;;;;;5072349;28;20690;-69
2021/07/24 03:16:36;;;;;;;13.37;11.97;;;17.90;99.90;;;;;;5072572;28;20169;-69
2021/07/24 03:19:02;;;;;;;16.13;13.57;;;17.90;99.90;;;;;;5072445;28;20694;-69
2021/07/24 03:21:28;;;;;;;14.93;13.33;;;17.90;99.90;;;;;;5070852;28;20178;-69
2021/07/24 03:23:53;;;;;;;13.40;12.10;;;17.90;99.90;;;;;;5072276;28;20451;-69
2021/07/24 03:26:19;;;;;;;15.23;12.67;;;17.90;99.90;;;;;;5072471;28;20173;-69
2021/07/24 03:28:45;;;;;;;15.97;12.07;;;18.00;99.90;;;;;;5072314;28;20723;-69
2021/07/24 03:31:11;;;;;;;14.43;13.07;;;18.00;99.90;;;;;;5072382;28;20794;-69
2021/07/24 03:33:37;;;;;;;16.80;13.53;;;18.00;99.90;;;;;;5070871;28;20459;-69
2021/07/24 03:36:02;;;;;;;14.00;12.53;;;18.00;99.90;;;;;;5072226;28;20233;-69
2021/07/24 03:38:28;;;;;;;16.63;13.00;;;18.10;99.90;;;;;;5072653;28;20167;-69
2021/07/24 03:40:54;;;;;;;15.37;13.50;;;18.10;99.90;;;;;;5072015;28;20180;-69
2021/07/24 03:43:19;;;;;;;17.27;12.97;;;18.20;99.90;;;;;;5072156;28;20210;-69
2021/07/24 03:45:45;;;;;;;15.80;12.87;;;18.20;99.90;;;;;;5072118;28;20486;-69
2021/07/24 03:48:11;;;;;;;14.33;12.77;;;18.20;99.90;;;;;;5072006;28;20210;-69
2021/07/24 03:50:36;;;;;;;14.50;13.00;;;18.20;99.90;;;;;;5072000;28;20200;-69
2021/07/24 03:53:02;;;;;;;14.43;12.93;;;18.20;99.90;;;;;;5071786;28;20178;-70
2021/07/24 03:55:27;;;;;;;18.07;13.97;;;18.30;99.90;;;;;;5071999;28;20241;-70
2021/07/24 03:57:55;;;;;;;17.60;13.30;;;18.30;99.90;;;;;;5071469;28;20172;-70
2021/07/24 04:00:22;;;;;;;14.00;12.50;;;18.30;99.90;;;;;;5070610;28;20209;-70
2021/07/24 04:02:49;;;;;;;15.43;12.53;;;18.30;99.90;;;;;;5071818;28;20438;-70
2021/07/24 04:05:14;;;;;;;14.47;13.07;;;18.40;99.90;;;;;;5071908;28;20436;-70
2021/07/24 04:07:41;;;;;;;15.40;12.43;;;18.40;99.90;;;;;;5071627;28;20438;-70
2021/07/24 04:10:12;;;;;;;15.87;13.70;;;18.40;99.90;;;;;;5071688;28;20653;-70
2021/07/24 04:12:40;;;;;;;15.53;13.27;;;18.50;99.90;;;;;;5072133;28;20414;-70
2021/07/24 04:15:06;;;;;;;15.80;14.30;;;18.60;99.90;;;;;;5070316;28;20490;-70
2021/07/24 04:17:32;;;;;;;15.17;12.40;;;18.60;99.90;;;;;;5071722;28;20407;-70
2021/07/24 04:19:57;;;;;;;14.70;12.70;;;18.70;99.90;;;;;;5071511;28;20415;-70
2021/07/24 04:22:23;;;;;;;13.93;12.53;;;18.80;99.90;;;;;;5071823;28;20404;-70
2021/07/24 04:24:49;;;;;;;27.47;12.30;;;18.80;99.90;;;;;;5071602;28;20181;-69
2021/07/24 04:27:15;;;;;;;12.60;11.30;;;18.90;99.90;;;;;;5071495;28;20177;-70
2021/07/24 04:29:41;;;;;;;13.50;12.00;;;19.00;99.90;;;;;;5071768;28;20596;-70
2021/07/24 04:32:06;;;;;;;12.07;10.70;;;19.10;99.90;;;;;;5072116;28;20400;-70
2021/07/24 04:34:32;;;;;;;13.23;11.87;;;19.20;99.90;;;;;;5071385;28;20210;-70
2021/07/24 04:36:58;;;;;;;13.53;12.13;;;19.20;99.90;;;;;;5070350;28;20686;-70
2021/07/24 04:39:23;;;;;;;14.20;12.70;;;19.30;99.90;;;;;;5071971;28;20262;-70
2021/07/24 04:41:49;;;;;;;14.80;12.77;;;19.40;99.90;;;;;;5070972;28;20176;-70
2021/07/24 04:44:15;;;;;;;13.23;11.93;;;19.50;99.90;;;;;;5072253;28;20488;-70
2021/07/24 04:46:40;;;;;;;13.93;12.27;;;19.50;99.90;;;;;;5071632;28;20174;-70
2021/07/24 04:49:06;;;;;;;13.80;12.37;;;19.60;99.90;;;;;;5072608;28;20437;-70
2021/07/24 04:51:32;;;;;;;13.30;11.93;;;19.70;99.90;;;;;;5072640;28;20196;-70
2021/07/24 04:53:58;;;;;;;19.90;13.47;;;19.70;99.90;;;;;;5072749;28;20224;-70
2021/07/24 04:56:25;;;;;;;13.50;12.13;;;19.90;99.90;;;;;;5072342;28;20891;-70
2021/07/24 04:58:50;;;;;;;13.37;11.97;;;20.00;99.90;;;;;;5071558;28;20520;-71
2021/07/24 05:01:18;;;;;;;13.10;11.10;;;20.10;99.90;;;;;;5071591;28;20488;-70
2021/07/24 05:03:44;;;;;;;13.50;11.50;;;20.20;99.90;;;;;;5072347;28;20225;-70
2021/07/24 05:06:09;;;;;;;11.97;10.67;;;20.40;99.90;;;;;;5072324;28;20404;-70
2021/07/24 05:08:36;;;;;;;15.97;11.67;;;20.70;99.90;;;;;;5072277;28;20346;-70
2021/07/24 05:11:03;;;;;;;13.93;11.80;;;21.10;99.90;;;;;;5073693;28;20208;-70
2021/07/24 05:13:28;;;;;;;12.17;10.80;;;21.50;99.90;;;;;;5076306;28;20412;-70
2021/07/24 05:15:54;;;;;;;11.20;10.10;;;21.70;99.90;;;;;;5076058;28;20408;-71
2021/07/24 05:18:19;;;;;;;12.77;9.90;;;21.90;99.90;;;;;;5075674;28;20171;-70
2021/07/24 05:20:45;;;;;;;11.20;10.03;;;22.20;99.90;;;;;;5074222;28;20191;-71
2021/07/24 05:23:11;;;;;;;14.13;11.90;;;22.40;99.90;;;;;;5075296;28;20174;-69
2021/07/24 05:25:38;;;;;;;12.60;11.30;;;22.50;99.90;;;;;;5075863;28;20540;-69
2021/07/24 05:28:04;;;;;;;12.87;10.17;;;22.80;99.90;;;;;;5075655;28;20604;-70
2021/07/24 05:30:29;;;;;;;12.90;10.83;;;23.10;99.90;;;;;;5075694;28;20526;-69
2021/07/24 05:32:55;;;;;;;11.63;10.43;;;23.40;99.90;;;;;;5076128;28;20179;-71
2021/07/24 05:35:21;;;;;;;12.00;10.50;;;23.50;99.90;;;;;;5077733;28;20303;-71
2021/07/24 05:37:46;;;;;;;9.63;8.73;;;23.50;99.90;;;;;;5077567;28;20744;-72
2021/07/24 05:40:12;;;;;;;10.90;9.80;;;23.80;99.90;;;;;;5077231;28;20215;-71
2021/07/24 05:42:37;;;;;;;11.53;10.30;;;23.80;99.90;;;;;;5076046;28;20176;-71
2021/07/24 05:45:04;;;;;;;12.63;11.33;;;24.40;99.90;;;;;;5077240;28;20213;-71
2021/07/24 05:47:33;;;;;;;12.17;10.90;;;24.30;99.90;;;;;;5076784;28;20174;-71
2021/07/24 05:50:00;;;;;;;13.30;10.63;;;24.40;99.90;;;;;;5077416;28;20443;-72
2021/07/24 05:52:26;;;;;;;11.53;10.43;;;24.50;99.90;;;;;;5075513;28;20422;-72
2021/07/24 05:54:52;;;;;;;11.27;10.17;;;24.60;99.90;;;;;;5074782;28;20456;-71
2021/07/24 05:57:17;;;;;;;11.57;10.40;;;24.70;99.90;;;;;;5077055;28;20169;-70
2021/07/24 05:59:43;;;;;;;11.60;10.60;;;24.50;99.90;;;;;;5076710;28;20190;-71
2021/07/24 06:02:12;;;;;;;11.40;10.27;;;24.60;99.90;;;;;;5076925;28;20272;-71
2021/07/24 06:04:39;;;;;;;12.33;10.70;;;25.10;99.90;;;;;;5059958;28;20249;-71
2021/07/24 06:07:05;;;;;;;11.60;10.40;;;25.40;99.90;;;;;;5078237;28;20410;-72
2021/07/24 06:09:31;;;;;;;10.93;9.83;;;25.00;99.90;;;;;;5076958;28;20435;-72
2021/07/24 06:11:56;;;;;;;11.70;10.60;;;25.00;99.90;;;;;;5077142;28;20774;-72
2021/07/24 06:14:23;;;;;;;12.03;10.90;;;25.40;99.90;;;;;;5074968;28;20233;-72
2021/07/24 06:16:49;;;;;;;15.50;11.00;;;25.40;99.90;;;;;;5076909;28;20165;-72
2021/07/24 06:19:15;;;;;;;11.60;10.60;;;25.50;99.90;;;;;;5076715;28;20543;-72
2021/07/24 06:21:40;;;;;;;12.67;11.37;;;25.10;99.90;;;;;;5077768;28;20766;-72
2021/07/24 06:24:06;;;;;;;12.93;11.27;;;26.00;99.90;;;;;;5077990;28;20249;-71
2021/07/24 06:26:35;;;;;;;16.30;10.97;;;26.20;99.90;;;;;;5076063;28;20185;-72
2021/07/24 06:29:00;;;;;;;10.90;9.90;;;26.50;99.90;;;;;;5076441;28;20227;-72
2021/07/24 06:31:26;;;;;;;11.47;10.37;;;27.20;99.90;;;;;;5075868;28;20408;-72
2021/07/24 06:33:51;;;;;;;11.27;10.13;;;26.90;99.90;;;;;;5076257;28;20263;-72
2021/07/24 06:36:17;;;;;;;14.03;10.07;;;27.40;99.90;;;;;;5074533;28;20186;-72
2021/07/24 06:38:42;;;;;;;12.57;11.33;;;27.40;99.90;;;;;;5075270;28;20223;-71
2021/07/24 06:41:08;;;;;;;11.33;10.23;;;27.80;99.90;;;;;;5075674;28;20194;-72
2021/07/24 06:43:33;;;;;;;11.70;10.57;;;28.30;99.90;;;;;;5076592;28;20162;-72
2021/07/24 06:46:10;;;;;;;11.23;10.20;;;28.40;99.90;;;;;;5075266;28;20178;-72
2021/07/24 06:48:35;;;;;;;10.33;9.30;;;29.10;98.60;;;;;;5077249;28;20239;-72
2021/07/24 06:51:01;;;;;;;11.47;10.13;;;29.40;97.80;;;;;;5077162;28;20428;-72
2021/07/24 06:53:26;;;;;;;12.03;10.83;;;29.50;97.30;;;;;;5075890;28;20177;-73
2021/07/24 06:55:56;;;;;;;10.27;9.27;;;29.20;97.50;;;;;;5075473;28;20249;-73
2021/07/24 06:58:21;;;;;;;10.90;9.90;;;28.80;98.20;;;;;;5076180;28;20165;-72
2021/07/24 07:00:47;;;;;;;11.77;10.47;;;28.70;99.00;;;;;;5076609;28;20420;-71
2021/07/24 07:03:13;;;;;;;10.83;9.60;;;29.30;98.10;;;;;;5076294;28;20181;-72
2021/07/24 07:05:38;;;;;;;11.80;10.70;;;29.80;96.30;;;;;;5074712;28;20189;-73
2021/07/24 07:08:04;;;;;;;11.90;10.70;;;29.60;95.50;;;;;;5073490;28;20174;-69
2021/07/24 07:10:29;;;;;;;18.10;10.50;;;30.20;95.00;;;;;;5073176;28;20198;-70
2021/07/24 07:12:54;;;;;;;9.67;8.77;;;30.20;94.10;;;;;;5073219;28;20166;-68
2021/07/24 07:15:20;;;;;;;11.10;10.13;;;29.10;95.50;;;;;;5072969;28;20217;-68
2021/07/24 07:17:46;;;;;;;10.80;9.80;;;29.60;95.30;;;;;;5072558;28;20611;-68
2021/07/24 07:20:11;;;;;;;11.07;9.97;;;29.60;95.10;;;;;;5072744;28;20488;-68
2021/07/24 07:22:37;;;;;;;10.90;9.83;;;30.00;95.10;;;;;;5072643;28;20706;-68
2021/07/24 07:25:03;;;;;;;10.73;9.73;;;29.90;95.00;;;;;;5072548;28;20696;-69
2021/07/24 07:27:29;;;;;;;11.63;9.90;;;29.70;94.10;;;;;;5070915;28;20542;-68
2021/07/24 07:29:54;;;;;;;11.03;10.03;;;30.00;93.60;;;;;;5072403;28;20421;-68
2021/07/24 07:32:20;;;;;;;11.70;10.47;;;29.50;94.60;;;;;;5071812;28;20539;-70
2021/07/24 07:34:45;;;;;;;12.93;11.40;;;30.00;94.10;;;;;;5072218;28;20653;-69
2021/07/24 07:37:10;;;;;;;11.77;10.60;;;30.00;94.00;;;;;;5072104;28;20162;-69
2021/07/24 07:39:36;;;;;;;11.90;10.40;;;30.70;92.50;;;;;;5072087;28;20182;-69
2021/07/24 07:42:02;;;;;;;11.63;10.53;;;30.80;91.30;;;;;;5072036;28;20578;-68
2021/07/24 07:44:28;;;;;;;12.30;11.10;;;30.50;91.70;;;;;;5072380;28;20200;-68
2021/07/24 07:46:54;;;;;;;11.13;10.17;;;30.40;91.50;;;;;;5072080;28;20165;-68
2021/07/24 07:49:20;;;;;;;11.07;10.10;;;30.40;92.10;;;;;;5072152;28;20460;-69
2021/07/24 07:51:45;;;;;;;10.37;9.37;;;31.10;91.20;;;;;;5072156;28;20459;-68
2021/07/24 07:54:10;;;;;;;11.70;10.67;;;31.30;91.20;;;;;;5072245;28;20264;-69
2021/07/24 07:56:37;;;;;;;11.50;10.50;;;31.40;90.60;;;;;;5072008;28;20170;-69
2021/07/24 07:59:03;;;;;;;12.87;11.77;;;30.80;90.90;;;;;;5072397;28;20624;-69
2021/07/24 08:01:29;;;;;;;11.93;10.73;;;31.10;90.60;;;;;;5072162;28;20846;-69
2021/07/24 08:03:54;;;;;;;12.10;11.00;;;30.60;91.10;;;;;;5070895;28;20256;-70
2021/07/24 08:06:20;;;;;;;11.70;10.50;;;31.30;90.70;;;;;;5072131;28;20583;-69
2021/07/24 08:08:45;;;;;;;12.27;11.07;;;31.30;90.40;;;;;;5071877;28;20166;-69
2021/07/24 08:11:11;;;;;;;11.53;10.60;;;31.80;86.40;;;;;;5071716;28;20201;-69
2021/07/24 08:13:36;;;;;;;10.80;9.90;;;31.50;87.00;;;;;;5072078;28;20166;-69
2021/07/24 08:16:02;;;;;;;11.30;10.23;;;31.20;86.70;;;;;;5071910;28;20216;-69
2021/07/24 08:18:28;;;;;;;11.33;10.23;;;31.50;87.20;;;;;;5071790;28;20173;-69
2021/07/24 08:20:53;;;;;;;11.53;10.30;;;30.90;84.80;;;;;;5070556;28;20185;-71
2021/07/24 08:23:18;;;;;;;12.57;11.27;;;30.80;86.80;;;;;;5071910;28;20177;-69
2021/07/24 08:25:45;;;;;;;11.33;10.30;;;30.60;85.60;;;;;;5071860;28;20166;-69
2021/07/24 08:28:11;;;;;;;11.70;10.70;;;30.50;86.50;;;;;;5071884;28;20166;-69
2021/07/24 08:30:37;;;;;;;11.50;10.50;;;30.70;86.50;;;;;;5071644;28;20874;-70
2021/07/24 08:33:03;;;;;;;11.77;10.67;;;30.60;86.30;;;;;;5071776;28;20412;-70
2021/07/24 08:35:29;;;;;;;11.47;10.43;;;31.10;85.50;;;;;;5071543;28;20284;-70
2021/07/24 08:37:55;;;;;;;12.40;11.03;;;30.70;86.30;;;;;;5071455;28;20393;-70
2021/07/24 08:40:21;;;;;;;10.87;9.87;;;31.00;84.30;;;;;;5071487;28;20263;-69
2021/07/24 08:42:47;;;;;;;11.07;10.10;;;31.30;84.70;;;;;;5070324;28;20503;-70
2021/07/24 08:45:16;;;;;;;11.70;10.70;;;31.40;82.20;;;;;;5075353;28;20416;-69
2021/07/24 08:47:41;;;;;;;11.33;10.30;;;30.60;82.70;;;;;;5075467;28;20166;-68
2021/07/24 08:50:10;;;;;;;11.77;10.67;;;30.80;84.20;;;;;;5074171;28;20428;-68
2021/07/24 08:52:36;;;;;;;10.70;9.70;;;30.80;82.50;;;;;;5075164;28;20232;-68
2021/07/24 08:55:06;;;;;;;11.60;10.47;;;31.00;83.50;;;;;;5075050;28;20451;-68
2021/07/24 08:57:39;;;;;;;11.37;10.27;;;31.00;81.40;;;;;;5073865;28;20412;-68
2021/07/24 09:00:15;;;;;;;10.67;9.67;;;30.50;83.00;;;;;;5075368;28;20478;-68
2021/07/24 09:02:43;;;;;;;10.40;9.40;;;31.00;80.70;;;;;;5074907;28;20456;-69
2021/07/24 09:05:13;;;;;;;12.33;11.13;;;31.50;79.00;;;;;;5075265;28;20969;-69
2021/07/24 09:07:40;;;;;;;11.60;10.60;;;30.80;81.20;;;;;;5074906;28;20415;-69
2021/07/24 09:10:08;;;;;;;11.83;10.67;;;30.60;81.10;;;;;;5075164;28;20945;-70
2021/07/24 09:12:36;;;;;;;11.97;10.77;;;31.10;80.20;;;;;;5074791;28;20824;-70
2021/07/24 09:15:03;;;;;;;12.07;10.90;;;30.80;80.10;;;;;;5074694;28;20448;-70
2021/07/24 09:17:28;;;;;;;10.23;9.43;;;31.00;81.00;;;;;;5074735;28;20404;-70
2021/07/24 09:19:56;;;;;;;11.20;10.20;;;31.00;80.80;;;;;;5074579;28;20435;-70
2021/07/24 09:22:35;;;;;;;10.90;10.00;;;31.20;79.10;;;;;;5073582;28;20516;-70
2021/07/24 09:25:20;;;;;;;12.80;11.60;;;31.00;78.00;;;;;;5075132;28;20887;-70
2021/07/24 09:27:51;;;;;;;10.83;9.93;;;31.00;78.90;;;;;;5076083;28;20499;-70
2021/07/24 09:30:32;;;;;;;10.70;9.90;;;31.10;79.00;;;;;;5076525;28;20907;-70
2021/07/24 09:33:18;;;;;;;11.03;10.03;;;31.10;78.00;;;;;;5074394;28;20497;-70
2021/07/24 09:35:54;;;;;;;11.93;10.73;;;30.80;78.60;;;;;;5075193;28;20488;-70
2021/07/24 09:38:31;;;;;;;11.73;10.70;;;31.00;77.50;;;;;;5077728;28;20396;-70
2021/07/24 09:40:58;;;;;;;11.63;10.53;;;30.20;78.20;;;;;;5074412;28;20893;-70
2021/07/24 09:43:39;;;;;;;10.83;9.83;;;30.00;77.80;;;;;;5075584;28;20430;-70
2021/07/24 09:46:19;;;;;;;10.87;9.87;;;30.50;78.70;;;;;;5075777;28;20438;-70
2021/07/24 09:48:49;;;;;;;11.67;10.57;;;30.00;79.10;;;;;;5076513;28;20884;-70
2021/07/24 09:51:15;;;;;;;11.67;10.47;;;30.80;76.30;;;;;;5077170;28;20435;-70
2021/07/24 09:53:45;;;;;;;11.10;10.13;;;30.50;77.20;;;;;;5075836;28;20486;-70
2021/07/24 09:56:15;;;;;;;10.00;9.03;;;30.60;76.60;;;;;;5075737;28;20408;-70
2021/07/24 09:58:45;;;;;;;11.20;10.00;;;30.60;75.50;;;;;;5073771;28;20404;-71
2021/07/24 10:01:12;;;;;;;11.03;9.93;;;30.50;74.80;;;;;;5074180;28;20435;-70
2021/07/24 10:03:39;;;;;;;11.40;10.30;;;30.30;76.20;;;;;;5074739;28;20931;-70
2021/07/24 10:06:10;;;;;;;10.80;9.80;;;30.30;76.30;;;;;;5075341;28;20432;-70
2021/07/24 10:08:39;;;;;;;12.13;10.07;;;29.80;77.30;;;;;;5074731;28;20507;-71
2021/07/24 10:11:04;;;;;;;10.80;9.87;;;30.20;76.60;;;;;;5073786;28;20436;-71
2021/07/24 10:13:30;;;;;;;11.70;10.70;;;29.80;76.80;;;;;;5074638;28;20401;-72
2021/07/24 10:15:56;;;;;;;10.57;9.67;;;29.90;76.50;;;;;;5075740;28;20174;-71
2021/07/24 10:18:22;;;;;;;11.80;10.80;;;30.10;76.60;;;;;;5075033;28;20636;-71
2021/07/24 10:20:50;;;;;;;12.30;11.10;;;29.70;77.50;;;;;;5074974;28;20420;-71
2021/07/24 10:23:23;;;;;;;10.93;9.93;;;29.90;76.80;;;;;;5074586;28;20267;-70
2021/07/24 10:26:01;;;;;;;11.77;10.67;;;29.20;77.50;;;;;;5073538;28;20455;-70
2021/07/24 10:28:40;;;;;;;11.20;10.00;;;29.60;79.10;;;;;;5073448;28;20408;-70
2021/07/24 10:31:14;;;;;;;10.73;9.63;;;29.60;77.30;;;;;;5073376;28;20484;-70
2021/07/24 10:33:41;;;;;;;12.40;11.10;;;29.60;77.20;;;;;;5073164;28;20408;-71
2021/07/24 10:36:11;;;;;;;11.63;10.53;;;29.60;78.00;;;;;;5073724;28;20427;-70
2021/07/24 10:38:37;;;;;;;10.70;9.60;;;29.40;77.80;;;;;;5074864;28;20762;-71
2021/07/24 10:41:21;;;;;;;11.97;10.77;;;29.50;78.20;;;;;;5076234;28;20434;-70
2021/07/24 10:44:05;;;;;;;9.80;8.90;;;29.40;79.10;;;;;;5073226;28;20174;-71
2021/07/24 10:49:08;;;;;;;10.03;9.03;;;29.30;78.60;;;;;;5073145;28;20404;-70
2021/07/24 10:51:53;;;;;;;12.00;10.67;;;29.40;80.50;;;;;;5073058;28;20420;-71
2021/07/24 10:54:18;;;;;;;11.70;9.20;;;29.70;78.20;;;;;;5075534;28;20460;-70
2021/07/24 10:56:44;;;;;;;11.60;10.40;;;29.40;78.70;;;;;;5074848;28;20435;-70
2021/07/24 10:59:19;;;;;;;11.73;10.10;;;29.30;80.30;;;;;;5073123;28;20212;-71
2021/07/24 11:01:46;;;;;;;11.10;10.10;;;29.60;79.40;;;;;;5074691;28;20158;-70
2021/07/24 11:04:37;;;;;;;11.63;9.73;;;29.50;78.70;;;;;;5072940;28;20439;-70
2021/07/24 11:07:25;;;;;;;11.70;10.50;;;29.30;78.20;;;;;;5072820;28;20402;-71
2021/07/24 11:09:54;;;;;;;12.93;10.50;;;29.20;79.10;;;;;;5074209;28;20435;-70
2021/07/24 11:12:36;;;;;;;13.03;9.27;;;29.30;77.60;;;;;;5073347;28;20409;-71
2021/07/24 11:15:39;;;;;;;10.80;9.70;;;29.60;78.30;;;;;;5073582;28;20450;-71
2021/07/24 11:18:22;;;;;;;10.90;9.80;;;29.60;78.90;;;;;;5072992;28;20772;-71
2021/07/24 11:20:47;;;;;;;11.50;10.30;;;29.40;77.90;;;;;;5073272;28;20424;-72
2021/07/24 11:23:13;;;;;;;11.53;10.40;;;29.30;78.50;;;;;;5073005;28;20475;-73
2021/07/24 11:25:40;;;;;;;12.50;11.20;;;29.10;78.70;;;;;;5074973;28;20170;-71
2021/07/24 11:28:07;;;;;;;11.23;10.20;;;28.90;79.10;;;;;;5074836;28;20446;-71
2021/07/24 11:30:32;;;;;;;11.37;10.27;;;29.00;77.90;;;;;;5074700;28;20485;-71
2021/07/24 11:32:58;;;;;;;10.67;9.67;;;29.00;78.40;;;;;;5072859;28;20746;-71
2021/07/24 11:35:30;;;;;;;14.20;9.67;;;28.90;77.90;;;;;;5072224;28;20195;-71
2021/07/24 11:37:57;;;;;;;10.57;9.60;;;29.00;79.20;;;;;;5073903;28;20158;-72
2021/07/24 11:40:27;;;;;;;10.83;9.83;;;29.10;79.10;;;;;;5073621;28;20510;-72
2021/07/24 11:43:08;;;;;;;10.80;9.60;;;29.00;79.50;;;;;;5072906;28;20397;-71
2021/07/24 11:45:41;;;;;;;11.70;10.70;;;29.10;78.60;;;;;;5073126;28;20939;-72
2021/07/24 11:48:16;;;;;;;10.83;9.73;;;29.00;80.10;;;;;;5072009;28;20421;-72
2021/07/24 11:50:43;;;;;;;12.00;9.30;;;29.00;79.80;;;;;;5075036;28;20794;-73
2021/07/24 11:53:12;;;;;;;9.53;8.70;;;28.90;79.10;;;;;;5075328;28;20407;-73
2021/07/24 11:55:40;;;;;;;10.43;9.37;;;29.00;79.80;;;;;;5075010;28;20461;-71
2021/07/24 11:58:14;;;;;;;11.77;10.47;;;29.00;80.00;;;;;;5075791;28;20410;-72
2021/07/24 12:00:42;;;;;;;14.60;11.53;;;29.10;80.50;;;;;;5075240;28;20988;-73
2021/07/24 12:03:22;;;;;;;10.90;9.50;;;29.00;79.40;;;;;;5073690;28;20432;-73
2021/07/24 12:06:08;;;;;;;10.90;9.90;;;29.40;79.20;;;;;;5074813;28;20752;-73
2021/07/24 12:08:35;;;;;;;10.60;9.60;;;29.50;79.10;;;;;;5074286;28;20458;-75
2021/07/24 12:11:00;;;;;;;10.50;9.50;;;29.50;81.10;;;;;;5074382;28;20425;-73
2021/07/24 12:13:27;;;;;;;10.70;9.57;;;29.90;79.50;;;;;;5076165;28;20412;-72
2021/07/24 12:16:00;;;;;;;9.17;8.37;;;29.50;76.90;;;;;;5074910;28;20630;-73
2021/07/24 12:18:28;;;;;;;12.80;9.53;;;29.10;78.50;;;;;;5076230;28;20495;-72
2021/07/24 12:21:07;;;;;;;9.67;8.77;;;29.40;77.30;;;;;;5081610;28;20922;-73
2021/07/24 12:23:32;;;;;;;10.40;9.50;;;29.40;77.50;;;;;;5081375;28;20407;-70
2021/07/24 12:26:18;;;;;;;10.60;9.07;;;29.80;77.10;;;;;;5081024;28;20409;-71
2021/07/24 12:28:44;;;;;;;10.53;9.53;;;30.00;76.60;;;;;;5080159;28;20169;-71
2021/07/24 12:31:23;;;;;;;10.23;9.23;;;30.00;75.40;;;;;;5081066;28;20909;-72
2021/07/24 12:33:53;;;;;;;12.03;10.60;;;29.90;74.90;;;;;;5079624;28;20342;-72
2021/07/24 12:36:21;;;;;;;10.60;9.23;;;29.70;75.70;;;;;;5081006;28;20414;-71
2021/07/24 12:38:46;;;;;;;10.70;9.50;;;29.30;76.50;;;;;;5081049;28;20443;-73
2021/07/24 12:41:12;;;;;;;11.17;9.70;;;29.40;77.60;;;;;;5080579;28;20784;-72